Terminal Aerodrome Forecast
Issued by NWS

Home | Current Version | Previous Version | Text Only | Print | Product List | Glossary On
Versions: 1 2 3 4 5 6 7 8 9 10 11 12 13 14 15 16 17 18
609
FTUS43 KLSX 221108 AAA
TAFCPS
TAF AMD
KCPS 221108Z 2211/2306 03015G25KT P6SM VCTS BKN020CB OVC050
      TEMPO 2211/2213 4SM -TSRA
     FM221300 18005KT P6SM FEW050 SCT250=

USA.gov is the U.S. government's official web portal to all federal, state and local government web resources and services.